createdAt,value
2023-03-21T00:03:04.492Z,100397.66
2023-03-21T00:08:06.029Z,100390.38
2023-03-21T00:13:07.512Z,100389.41
2023-03-21T00:18:11.252Z,100383.59
2023-03-21T00:23:13.050Z,100377.94
2023-03-21T00:28:14.503Z,100370.78
2023-03-21T00:33:22.580Z,100367.53
2023-03-21T00:38:24.850Z,100369.72
2023-03-21T00:43:30.112Z,100359.44
2023-03-21T00:48:31.945Z,100357.53
2023-03-21T00:53:33.333Z,100344.84
2023-03-21T00:58:34.749Z,100350.31
2023-03-21T01:03:42.622Z,100323.94
2023-03-21T01:08:52.236Z,100333.88
2023-03-21T01:14:03.986Z,100323.09
2023-03-21T01:19:22.041Z,100334.72
2023-03-21T01:24:26.532Z,100321.66
2023-03-21T01:29:27.965Z,100330.84
2023-03-21T01:34:29.889Z,100335.34
2023-03-21T01:39:34.814Z,100330.63
2023-03-21T01:45:15.346Z,100323.16
2023-03-21T01:50:17.062Z,100320.50
2023-03-21T01:55:18.964Z,100321.47
2023-03-21T02:00:24.937Z,100319.31
2023-03-21T02:05:33.347Z,100309.84
2023-03-21T02:10:36.488Z,100309.13
2023-03-21T02:15:41.330Z,100300.78
2023-03-21T02:21:21.892Z,100302.38
2023-03-21T02:26:43.885Z,100298.38
2023-03-21T02:32:00.908Z,100289.56
2023-03-21T02:37:23.482Z,100296.00
2023-03-21T02:42:51.584Z,100281.34
2023-03-21T02:48:10.067Z,100271.22
2023-03-21T02:53:18.363Z,100281.72
2023-03-21T02:58:23.260Z,100282.34
2023-03-21T03:03:34.065Z,100274.69
2023-03-21T03:09:02.770Z,100280.28
2023-03-21T03:14:36.761Z,100279.19
2023-03-21T03:19:50.018Z,100279.44
2023-03-21T03:25:18.599Z,100270.25
2023-03-21T03:30:35.436Z,100269.25
2023-03-21T03:35:46.443Z,100258.84
2023-03-21T03:40:58.368Z,100235.16
2023-03-21T03:46:23.091Z,100262.47
2023-03-21T03:51:43.882Z,100252.91
2023-03-21T03:56:46.891Z,100253.16
2023-03-21T04:01:49.114Z,100257.16
2023-03-21T04:06:51.714Z,100257.66
2023-03-21T04:11:53.229Z,100256.44
2023-03-21T04:16:54.597Z,100242.41
2023-03-21T04:21:56.191Z,100242.41
2023-03-21T04:26:57.604Z,100246.41
2023-03-21T04:31:59.664Z,100229.34
2023-03-21T04:37:01.019Z,100231.88
2023-03-21T04:42:02.372Z,100237.31
2023-03-21T04:47:03.811Z,100238.19
2023-03-21T04:52:05.961Z,100230.94
2023-03-21T04:57:08.019Z,100233.94
2023-03-21T05:02:09.503Z,100249.44
2023-03-21T05:07:11.094Z,100250.88
2023-03-21T05:12:12.503Z,100251.09
2023-03-21T05:17:15.355Z,100252.09
2023-03-21T05:22:19.105Z,100243.97
2023-03-21T05:27:36.975Z,100240.47
2023-03-21T05:32:38.565Z,100226.44
2023-03-21T05:37:40.334Z,100234.41
2023-03-21T05:42:41.753Z,100234.78
2023-03-21T05:47:43.278Z,100235.03
2023-03-21T05:52:44.654Z,100228.63
2023-03-21T05:57:46.184Z,100237.56
2023-03-21T06:02:48.097Z,100231.53
2023-03-21T06:07:50.317Z,100224.75
2023-03-21T06:12:51.691Z,100236.84
2023-03-21T06:17:53.220Z,100231.19
2023-03-21T06:22:54.684Z,100233.47
2023-03-21T06:27:56.336Z,100235.03
2023-03-21T06:32:57.711Z,100244.81
2023-03-21T06:37:59.798Z,100242.03
2023-03-21T06:43:01.500Z,100244.72
2023-03-21T06:48:03.415Z,100251.81
2023-03-21T06:53:06.542Z,100250.34
2023-03-21T06:58:17.061Z,100242.56
2023-03-21T07:03:19.474Z,100235.47
2023-03-21T07:08:22.310Z,100249.69
2023-03-21T07:13:24.150Z,100238.59
2023-03-21T07:18:26.225Z,100248.06
2023-03-21T07:23:28.308Z,100249.63
2023-03-21T07:28:31.338Z,100251.34
2023-03-21T07:33:33.745Z,100252.53
2023-03-21T07:38:35.234Z,100250.56
2023-03-21T07:43:39.167Z,100246.19
2023-03-21T07:48:40.996Z,100259.16
2023-03-21T07:53:44.074Z,100269.16
2023-03-21T07:58:45.603Z,100257.31
2023-03-21T08:03:48.039Z,100253.28
2023-03-21T08:08:49.521Z,100254.84
2023-03-21T08:13:51.450Z,100250.25
2023-03-21T08:18:52.855Z,100251.25
2023-03-21T08:23:54.543Z,100242.72
2023-03-21T08:28:56.101Z,100242.47
2023-03-21T08:33:57.718Z,100243.19
2023-03-21T08:39:05.704Z,100244.81
2023-03-21T08:44:07.123Z,100245.59
2023-03-21T08:49:08.644Z,100243.47
2023-03-21T08:54:18.671Z,100236.31
2023-03-21T08:59:20.326Z,100240.03
2023-03-21T09:04:21.754Z,100237.22
2023-03-21T09:09:23.855Z,100240.19
2023-03-21T09:14:28.742Z,100238.31
2023-03-21T09:19:31.868Z,100242.38
2023-03-21T09:24:33.406Z,100237.03
2023-03-21T09:29:34.920Z,100242.97
2023-03-21T09:34:41.115Z,100246.91
2023-03-21T09:39:44.922Z,100248.59
2023-03-21T09:45:10.322Z,100243.38
2023-03-21T09:50:17.346Z,100249.59
2023-03-21T09:55:31.580Z,100242.72
2023-03-21T10:00:40.288Z,100234.41
2023-03-21T10:05:47.037Z,100240.88
2023-03-21T10:10:52.574Z,100238.28
2023-03-21T10:15:58.599Z,100235.16
2023-03-21T10:21:01.337Z,100229.75
2023-03-21T10:26:06.517Z,100229.97
2023-03-21T10:31:10.923Z,100228.47
2023-03-21T10:36:27.894Z,100220.66
2023-03-21T10:41:29.631Z,100225.88
2023-03-21T10:46:33.459Z,100221.03
2023-03-21T10:51:39.838Z,100226.63
2023-03-21T10:56:55.432Z,100218.75
2023-03-21T11:01:57.550Z,100223.56
2023-03-21T11:07:07.621Z,100233.81
2023-03-21T11:12:15.806Z,100223.72
2023-03-21T11:17:17.427Z,100222.59
2023-03-21T11:22:22.512Z,100211.78
2023-03-21T11:27:29.350Z,100218.53
2023-03-21T11:32:37.822Z,100216.56
2023-03-21T11:37:46.648Z,100217.88
2023-03-21T11:42:59.370Z,100214.06
2023-03-21T11:48:06.462Z,100210.41
2023-03-21T11:53:40.618Z,100211.50
2023-03-21T11:58:54.676Z,100190.16
2023-03-21T12:04:27.334Z,100200.25
2023-03-21T12:09:41.146Z,100201.56
2023-03-21T12:15:16.935Z,100191.84
2023-03-21T12:20:54.334Z,100195.78
2023-03-21T12:26:21.462Z,100184.34
2023-03-21T12:31:26.288Z,100180.88
2023-03-21T12:36:59.056Z,100170.75
2023-03-21T12:42:22.349Z,100161.84
2023-03-21T12:47:28.112Z,100151.78
2023-03-21T12:52:36.926Z,100138.63
2023-03-21T12:57:56.370Z,100134.72
2023-03-21T13:03:04.104Z,100137.13
2023-03-21T13:08:11.398Z,100133.63
2023-03-21T13:13:55.088Z,100128.59
2023-03-21T13:19:10.968Z,100129.47
2023-03-21T13:24:28.481Z,100128.06
2023-03-21T13:29:45.151Z,100124.44
2023-03-21T13:34:55.023Z,100112.59
2023-03-21T13:40:12.839Z,100107.81
2023-03-21T13:45:27.460Z,100111.50
2023-03-21T13:50:54.738Z,100112.34
2023-03-21T13:56:06.804Z,100104.19
2023-03-21T14:01:33.160Z,100100.97
2023-03-21T14:07:17.963Z,100084.25
2023-03-21T14:12:47.527Z,100096.16
2023-03-21T14:18:06.507Z,100077.59
2023-03-21T14:23:17.899Z,100072.97
2023-03-21T14:28:29.821Z,100073.56
2023-03-21T14:33:38.539Z,100064.66
2023-03-21T14:38:40.317Z,100049.94
2023-03-21T14:43:42.949Z,100054.56
2023-03-21T14:48:44.431Z,100046.72
2023-03-21T14:53:46.181Z,100023.56
2023-03-21T14:58:48.196Z,100031.41
2023-03-21T15:03:52.017Z,100017.50
2023-03-21T15:08:59.770Z,100027.59
2023-03-21T15:14:05.005Z,100031.53
2023-03-21T15:19:07.847Z,100027.59
2023-03-21T15:24:17.451Z,100034.75
2023-03-21T15:29:19.231Z,100018.31
2023-03-21T15:34:22.300Z,100024.78
2023-03-21T15:39:24.614Z,100013.13
2023-03-21T15:44:27.761Z,100001.41
2023-03-21T15:49:35.721Z,99998.75
2023-03-21T15:54:50.851Z,99990.50
2023-03-21T16:00:11.890Z,99996.25
2023-03-21T16:05:26.022Z,100010.03
2023-03-21T16:10:37.780Z,100006.22
2023-03-21T16:15:40.014Z,100002.16
2023-03-21T16:20:46.110Z,99994.72
2023-03-21T16:25:47.842Z,99985.16
2023-03-21T16:30:49.466Z,99981.94
2023-03-21T16:35:52.424Z,99981.38
2023-03-21T16:40:53.874Z,99981.38
2023-03-21T16:45:55.261Z,99968.44
2023-03-21T16:50:56.828Z,99973.78
2023-03-21T16:56:02.556Z,99987.44
2023-03-21T17:01:04.066Z,99980.72
2023-03-21T17:06:06.095Z,99986.19
2023-03-21T17:11:12.418Z,99987.31
2023-03-21T17:16:15.708Z,99966.38
2023-03-21T17:21:20.403Z,99964.69
2023-03-21T17:26:27.480Z,99952.63
2023-03-21T17:31:34.517Z,99949.09
2023-03-21T17:36:40.551Z,99937.06
2023-03-21T17:41:42.030Z,99946.72
2023-03-21T17:46:44.120Z,99932.84
2023-03-21T17:51:46.996Z,99955.31
2023-03-21T17:56:48.515Z,99964.59
2023-03-21T18:01:49.954Z,99918.25
2023-03-21T18:06:51.758Z,99956.16
2023-03-21T18:11:53.240Z,99958.97
2023-03-21T18:16:57.429Z,99964.47
2023-03-21T18:21:58.903Z,99968.25
2023-03-21T18:27:00.941Z,99974.53
2023-03-21T18:32:06.924Z,99965.16
2023-03-21T18:37:11.299Z,99974.72
2023-03-21T18:42:18.018Z,99969.34
2023-03-21T18:47:22.904Z,99970.19
2023-03-21T18:52:27.719Z,99979.31
2023-03-21T18:57:36.972Z,99986.75
2023-03-21T19:02:46.722Z,99985.09
2023-03-21T19:07:50.847Z,99989.00
2023-03-21T19:12:54.731Z,99988.75
2023-03-21T19:23:18.718Z,99976.22
2023-03-21T19:28:20.374Z,99980.03
2023-03-21T19:33:22.759Z,99968.25
2023-03-21T19:38:24.428Z,99972.03
2023-03-21T19:43:32.880Z,99970.47
2023-03-21T19:48:36.102Z,99969.06
2023-03-21T19:53:39.061Z,99967.34
2023-03-21T19:58:44.035Z,99970.03
2023-03-21T20:03:46.014Z,99981.38
2023-03-21T20:14:09.500Z,99976.31
2023-03-21T20:19:13.388Z,99978.16
2023-03-21T20:24:16.268Z,99988.00
2023-03-21T20:34:40.314Z,99989.84
2023-03-21T20:39:42.624Z,99970.47
2023-03-21T20:45:00.841Z,99990.84
2023-03-21T20:50:03.213Z,99968.03
2023-03-21T20:55:08.933Z,99960.31
2023-03-21T21:00:18.454Z,99964.66
2023-03-21T21:05:35.896Z,99968.16
2023-03-21T21:11:02.621Z,99953.59
2023-03-21T21:16:00.222Z,99959.28
2023-03-21T21:21:05.678Z,99960.25
2023-03-21T21:26:09.079Z,99964.91
2023-03-21T21:31:14.572Z,99975.84
2023-03-21T21:36:16.900Z,99972.00
2023-03-21T21:41:21.275Z,99965.00
2023-03-21T21:46:23.530Z,99959.50
2023-03-21T21:51:26.343Z,99963.59
2023-03-21T21:56:32.685Z,99951.09
2023-03-21T22:01:35.017Z,99942.22
2023-03-21T22:06:37.537Z,99952.59
2023-03-21T22:11:38.937Z,99946.28
2023-03-21T22:16:40.459Z,99941.81
2023-03-21T22:21:41.985Z,99934.91
2023-03-21T22:26:44.896Z,99935.06
2023-03-21T22:31:47.240Z,99940.78
2023-03-21T22:36:50.301Z,99926.75
2023-03-21T22:41:54.247Z,99932.34
2023-03-21T22:46:56.001Z,99931.66
2023-03-21T22:51:58.678Z,99933.16
2023-03-21T22:57:00.235Z,99935.38
2023-03-21T23:02:01.923Z,99931.72
2023-03-21T23:07:04.196Z,99930.59
2023-03-21T23:12:05.862Z,99939.13
2023-03-21T23:17:07.408Z,99930.94
2023-03-21T23:22:09.052Z,99926.31
2023-03-21T23:27:10.612Z,99924.63
2023-03-21T23:32:12.057Z,99926.63
2023-03-21T23:37:13.448Z,99923.13
2023-03-21T23:42:14.826Z,99929.88
2023-03-21T23:47:16.770Z,99918.53
2023-03-21T23:52:18.967Z,99914.44
2023-03-21T23:57:20.604Z,99915.16
